Time;durP1;ratioP1;P1;durP2;ratioP2;P2;SDS_P1;SDS_P2;PMS_P1;PMS_P2;Temp;Humidity;BMP_temperature;BMP_pressure;BME280_temperature;BME280_humidity;BME280_pressure;Samples;Min_cycle;Max_cycle;Signal;HPM_P1;HPM_P2
2022/06/13 00:00:51;;;;;;;6.03;1.92;;;;;;;19.20;56.82;101283.22;5027112;28;20426;-72
2022/06/13 00:03:17;;;;;;;5.07;2.15;;;;;;;19.00;57.55;101276.78;5027563;28;20712;-71
2022/06/13 00:05:43;;;;;;;8.38;1.98;;;;;;;18.96;57.48;101273.53;5028493;28;20644;-71
2022/06/13 00:08:11;;;;;;;5.28;2.10;;;;;;;19.09;56.95;101277.91;5028306;28;20041;-72
2022/06/13 00:10:37;;;;;;;5.55;2.22;;;;;;;19.21;56.46;101263.66;5025735;28;20053;-71
2022/06/13 00:13:04;;;;;;;7.15;2.22;;;;;;;19.18;56.56;101278.00;5025346;28;20053;-72
2022/06/13 00:15:31;;;;;;;6.13;2.00;;;;;;;19.24;56.30;101277.53;5027067;28;20096;-72
2022/06/13 00:17:57;;;;;;;6.53;2.25;;;;;;;19.02;56.63;101279.34;5026615;28;20054;-72
2022/06/13 00:20:23;;;;;;;9.20;2.10;;;;;;;18.76;57.25;101276.06;5025253;28;20041;-72
2022/06/13 00:22:50;;;;;;;8.80;2.40;;;;;;;18.85;57.34;101272.66;5024131;28;20049;-72
2022/06/13 00:25:18;;;;;;;7.30;2.30;;;;;;;18.76;57.52;101278.72;5026430;28;20045;-72
2022/06/13 00:27:45;;;;;;;6.55;2.08;;;;;;;18.68;57.83;101287.28;5026811;28;20107;-72
2022/06/13 00:30:12;;;;;;;5.50;2.20;;;;;;;18.19;58.99;101286.59;5025595;28;20073;-71
2022/06/13 00:32:38;;;;;;;4.82;2.17;;;;;;;18.24;58.20;101287.97;5025262;28;20049;-71
2022/06/13 00:35:06;;;;;;;6.32;2.10;;;;;;;18.35;57.83;101298.63;5026706;28;20545;-72
2022/06/13 00:37:32;;;;;;;7.88;2.40;;;;;;;18.57;56.64;101291.72;5027189;28;20498;-72
2022/06/13 00:39:58;;;;;;;7.03;2.25;;;;;;;18.49;56.39;101289.59;5024558;28;20076;-71
2022/06/13 00:42:27;;;;;;;7.57;2.22;;;;;;;18.20;56.18;101286.50;5026059;28;20509;-71
2022/06/13 00:45:23;;;;;;;10.82;2.58;;;;;;;18.23;54.77;101282.75;5037571;28;20048;-71
2022/06/13 00:47:52;;;;;;;8.52;2.10;;;;;;;18.02;54.59;101285.22;5021602;28;20045;-71
2022/06/13 00:50:23;;;;;;;4.97;2.05;;;;;;;18.13;53.69;101282.59;5044249;28;20045;-73
2022/06/13 00:52:53;;;;;;;6.63;2.00;;;;;;;18.03;53.76;101278.09;5046398;28;20099;-72
2022/06/13 00:55:26;;;;;;;6.25;2.30;;;;;;;17.86;54.14;101287.28;5047519;28;20048;-72
2022/06/13 00:57:54;;;;;;;6.53;2.17;;;;;;;18.03;53.76;101278.94;5034381;28;20045;-72
2022/06/13 01:00:21;;;;;;;4.90;2.13;;;;;;;17.85;53.97;101283.78;5025084;28;20115;-72
2022/06/13 01:02:51;;;;;;;7.57;1.80;;;;;;;17.83;54.06;101280.41;5026983;28;20441;-72
2022/06/13 01:05:22;;;;;;;5.47;2.30;;;;;;;17.70;53.19;101292.84;5025411;28;20063;-72
2022/06/13 01:07:50;;;;;;;5.38;2.38;;;;;;;17.76;52.34;101286.28;5025571;28;20045;-69
2022/06/13 01:13:05;;;;;;;8.93;2.17;;;;;;;17.78;51.60;101277.25;5023443;28;20697;-68
2022/06/13 01:15:48;;;;;;;4.87;1.63;;;;;;;18.06;51.09;101284.03;5025564;28;20041;-72
2022/06/13 01:18:43;;;;;;;5.13;1.80;;;;;;;17.88;52.03;101277.44;5025893;28;20046;-72
2022/06/13 01:21:16;;;;;;;5.28;1.70;;;;;;;18.05;51.50;101286.78;5032580;28;20048;-72
2022/06/13 01:24:05;;;;;;;8.35;2.03;;;;;;;17.83;51.69;101282.22;5038664;28;20383;-72
2022/06/13 01:26:58;;;;;;;6.57;2.67;;;;;;;17.85;51.40;101274.97;5022723;28;20057;-72
2022/06/13 01:29:56;;;;;;;3.50;1.63;;;;;;;17.79;52.02;101278.09;5021238;28;20494;-71
2022/06/13 01:32:52;;;;;;;7.57;2.00;;;;;;;17.67;52.44;101279.81;5023759;28;20111;-71
2022/06/13 01:35:30;;;;;;;11.75;2.53;;;;;;;17.75;52.07;101279.25;5024913;28;20072;-72
2022/06/13 01:38:03;;;;;;;8.18;2.10;;;;;;;17.87;51.45;101284.53;5025492;28;20045;-72
2022/06/13 01:40:39;;;;;;;6.68;2.00;;;;;;;17.63;52.31;101277.50;5024770;28;20042;-71
2022/06/13 01:43:12;;;;;;;4.47;1.80;;;;;;;17.50;52.70;101280.16;5025562;28;20461;-71
2022/06/13 01:45:43;;;;;;;8.15;1.80;;;;;;;17.51;52.94;101280.03;5024697;28;20069;-71
2022/06/13 01:48:27;;;;;;;7.00;2.20;;;;;;;17.10;53.55;101282.16;5024228;28;20060;-72
2022/06/13 01:51:01;;;;;;;4.80;2.10;;;;;;;16.86;54.47;101273.25;5023741;28;20045;-72
2022/06/13 01:53:38;;;;;;;8.40;2.00;;;;;;;16.85;54.45;101280.34;5025077;28;20037;-71
2022/06/13 01:56:09;;;;;;;6.82;2.47;;;;;;;16.84;54.17;101277.81;5025759;28;20481;-72
2022/06/13 01:58:41;;;;;;;7.97;1.80;;;;;;;16.98;53.46;101286.50;5023750;28;20046;-72
2022/06/13 02:01:15;;;;;;;6.57;2.28;;;;;;;16.96;53.83;101288.41;5024617;28;20042;-72
2022/06/13 02:03:47;;;;;;;4.68;1.80;;;;;;;16.99;53.61;101282.06;5025870;28;20068;-73
2022/06/13 02:06:20;;;;;;;9.88;2.22;;;;;;;17.03;53.48;101284.38;5025140;28;20049;-72
2022/06/13 02:08:50;;;;;;;7.72;2.22;;;;;;;16.90;53.52;101291.50;5023899;28;20050;-72
2022/06/13 02:11:23;;;;;;;14.40;2.50;;;;;;;16.62;54.52;101297.00;5023656;28;20417;-72
2022/06/13 02:13:55;;;;;;;10.40;2.58;;;;;;;16.81;55.33;101307.19;5018339;28;20041;-72
2022/06/13 02:16:26;;;;;;;7.35;2.03;;;;;;;16.78;55.29;101313.50;5025222;28;20037;-72
2022/06/13 02:18:58;;;;;;;8.00;2.13;;;;;;;16.97;54.76;101307.81;5024779;28;20050;-73
2022/06/13 02:21:29;;;;;;;;;;;;;;;17.41;53.53;101321.44;5026536;28;20123;-71
2022/06/13 02:23:58;;;;;;;7.18;2.00;;;;;;;17.20;54.26;101320.31;5023867;28;20043;-71
2022/06/13 02:26:30;;;;;;;7.53;2.03;;;;;;;17.15;54.53;101317.13;5024508;28;20437;-72
2022/06/13 02:29:00;;;;;;;6.82;2.25;;;;;;;16.98;55.67;101315.66;5024558;28;20460;-72
2022/06/13 02:31:33;;;;;;;8.15;2.10;;;;;;;17.12;55.30;101309.38;5024770;28;20046;-72
2022/06/13 02:34:03;;;;;;;7.30;2.63;;;;;;;17.12;55.86;101309.38;5023617;28;20585;-72
2022/06/13 02:36:39;;;;;;;7.43;2.65;;;;;;;17.05;56.17;101305.47;5024139;28;20046;-72
2022/06/13 02:39:10;;;;;;;10.63;3.33;;;;;;;16.91;56.47;101298.50;5023588;28;20037;-72
2022/06/13 02:41:43;;;;;;;10.20;2.83;;;;;;;17.13;56.26;101297.84;5023653;28;20417;-72
2022/06/13 02:44:12;;;;;;;;;;;;;;;17.38;55.43;101289.00;5024874;28;20045;-72
2022/06/13 02:46:43;;;;;;;10.27;2.60;;;;;;;17.35;55.73;101290.06;5024147;28;19925;-72
2022/06/13 02:49:16;;;;;;;7.00;2.42;;;;;;;17.19;56.34;101289.44;5022619;28;20108;-71
2022/06/13 02:51:48;;;;;;;10.40;2.50;;;;;;;16.96;56.56;101277.81;5024413;28;20415;-71
2022/06/13 02:54:22;;;;;;;6.63;2.22;;;;;;;16.82;57.29;101288.53;5039719;28;20049;-71
2022/06/13 03:00:06;;;;;;;6.65;2.45;;;;;;;17.15;56.24;101292.41;5022860;28;20152;-71
2022/06/13 03:02:45;;;;;;;7.00;2.47;;;;;;;17.35;55.87;101302.47;5038645;28;20098;-71
2022/06/13 03:05:30;;;;;;;6.95;2.67;;;;;;;17.30;55.84;101304.59;5026514;28;20041;-71
2022/06/13 03:08:06;;;;;;;7.15;2.53;;;;;;;17.27;56.04;101305.66;5032064;28;20053;-71
2022/06/13 03:10:41;;;;;;;10.15;2.90;;;;;;;17.13;57.09;101312.88;5028237;28;20071;-71
2022/06/13 03:13:15;;;;;;;10.70;2.50;;;;;;;17.42;55.88;101299.28;5032845;28;20045;-72
2022/06/13 03:15:46;;;;;;;9.75;3.55;;;;;;;17.18;56.22;101301.03;5039279;28;20041;-71
2022/06/13 03:18:20;;;;;;;15.75;3.10;;;;;;;17.06;56.61;101301.88;5036394;28;20068;-71
2022/06/13 03:20:54;;;;;;;13.50;3.03;;;;;;;17.08;56.69;101301.75;5008477;28;20050;-71
2022/06/13 03:23:27;;;;;;;7.45;2.80;;;;;;;17.35;55.60;101313.94;5018512;28;20045;-71
2022/06/13 03:25:58;;;;;;;7.88;2.90;;;;;;;17.61;55.22;101319.22;5026649;28;20099;-71
2022/06/13 03:28:29;;;;;;;8.30;3.53;;;;;;;17.60;55.90;101323.66;5031666;28;20133;-71
2022/06/13 03:30:59;;;;;;;10.02;3.60;;;;;;;17.45;58.75;101335.31;5033409;28;20075;-74
2022/06/13 03:33:43;;;;;;;9.82;3.53;;;;;;;17.33;59.55;101315.81;5038027;28;20050;-76
2022/06/13 03:36:18;;;;;;;11.43;3.90;;;;;;;17.04;64.10;101303.78;5028000;28;20045;-75
2022/06/13 03:38:50;;;;;;;9.63;3.53;;;;;;;16.95;65.18;101296.47;5038732;28;20133;-75
2022/06/13 03:41:20;;;;;;;6.20;2.78;;;;;;;16.80;64.65;101302.81;5027465;28;20052;-76
2022/06/13 03:43:51;;;;;;;10.02;3.65;;;;;;;16.69;65.74;101313.31;5039033;28;20048;-76
2022/06/13 03:46:22;;;;;;;7.93;3.13;;;;;;;16.83;65.47;101311.41;5046328;28;20044;-75
2022/06/13 03:48:55;;;;;;;6.68;3.08;;;;;;;17.13;63.92;101316.38;5044223;28;20049;-75
2022/06/13 03:51:26;;;;;;;16.27;3.60;;;;;;;17.35;63.88;101319.22;5048869;28;20053;-75
2022/06/13 03:53:56;;;;;;;7.05;3.30;;;;;;;17.35;64.02;101313.94;5034225;28;20464;-75
2022/06/13 03:56:27;;;;;;;7.70;2.90;;;;;;;17.25;64.31;101314.69;5027344;28;20405;-75
2022/06/13 03:58:59;;;;;;;9.23;3.45;;;;;;;16.98;65.02;101315.66;5010557;28;20049;-74
2022/06/13 04:01:29;;;;;;;10.70;3.50;;;;;;;17.09;64.99;101316.72;5023896;28;20049;-74
2022/06/13 04:03:56;;;;;;;7.85;2.88;;;;;;;16.95;66.21;101330.91;5039296;28;20041;-74
2022/06/13 04:06:37;;;;;;;11.10;3.50;;;;;;;17.28;64.59;101327.72;5037801;28;20096;-74
2022/06/13 04:09:07;;;;;;;9.27;3.70;;;;;;;17.31;63.84;101311.59;5040845;28;20516;-74
2022/06/13 04:11:56;;;;;;;8.13;2.97;;;;;;;17.29;63.53;101324.97;5024394;28;20045;-74
2022/06/13 04:14:41;;;;;;;10.60;3.50;;;;;;;17.43;63.38;101335.44;5036749;28;20447;-74
2022/06/13 04:17:18;;;;;;;6.35;3.40;;;;;;;17.59;63.79;101323.78;5026492;28;20042;-74
2022/06/13 04:19:55;;;;;;;11.05;3.45;;;;;;;17.50;63.23;101326.09;5025446;28;20057;-76
2022/06/13 04:22:33;;;;;;;7.47;3.55;;;;;;;17.39;64.81;101336.63;5027115;28;20049;-77
2022/06/13 04:25:04;;;;;;;7.85;3.30;;;;;;;17.51;63.92;101337.56;5045650;28;20045;-77
2022/06/13 04:27:36;;;;;;;9.20;3.20;;;;;;;17.72;63.31;101333.41;5045037;28;20048;-77
2022/06/13 04:30:09;;;;;;;10.15;3.42;;;;;;;17.43;64.50;101337.25;5025912;28;20115;-77
2022/06/13 04:32:41;;;;;;;8.65;3.42;;;;;;;17.18;64.46;101337.28;5024052;28;20128;-76
2022/06/13 04:35:08;;;;;;;7.28;3.10;;;;;;;17.43;64.40;101335.44;5035847;28;20064;-75
2022/06/13 04:37:39;;;;;;;10.43;3.75;;;;;;;17.58;63.96;101325.59;5026690;28;20081;-75
2022/06/13 04:40:09;;;;;;;6.38;2.72;;;;;;;17.56;64.12;101332.75;5025611;28;20045;-77
2022/06/13 04:42:40;;;;;;;9.10;3.95;;;;;;;17.45;64.67;101320.25;5024325;28;20289;-76
2022/06/13 04:45:17;;;;;;;10.55;3.78;;;;;;;17.53;64.29;101317.91;5025362;28;20045;-75
2022/06/13 04:47:44;;;;;;;6.03;3.17;;;;;;;17.51;64.56;101321.66;5023034;28;20056;-74
2022/06/13 04:50:17;;;;;;;7.43;3.17;;;;;;;17.44;64.63;101326.50;5032426;28;20529;-75
2022/06/13 04:52:47;;;;;;;12.57;4.47;;;;;;;17.63;63.44;101334.03;5025249;28;20049;-74
2022/06/13 04:55:19;;;;;;;8.00;3.25;;;;;;;17.48;64.48;101343.91;5024573;28;20502;-76
2022/06/13 04:57:45;;;;;;;7.97;2.90;;;;;;;17.98;62.68;101339.47;4988946;28;1042739;-76
2022/06/13 05:00:14;;;;;;;10.90;3.22;;;;;;;18.07;62.00;101344.06;5025127;28;20045;-76
2022/06/13 05:02:43;;;;;;;11.48;3.45;;;;;;;18.40;61.65;101348.72;5025926;28;20520;-76
2022/06/13 05:05:28;;;;;;;12.93;3.88;;;;;;;18.10;61.76;101364.25;5025417;28;20617;-74
2022/06/13 05:07:56;;;;;;;8.73;3.30;;;;;;;18.72;60.14;101356.94;5027410;28;20073;-75
2022/06/13 05:10:27;;;;;;;9.73;3.15;;;;;;;18.33;60.25;101358.94;5025414;28;20045;-75
2022/06/13 05:12:55;;;;;;;7.10;3.72;;;;;;;18.24;59.54;101361.44;5016799;28;20041;-74
2022/06/13 05:15:27;;;;;;;8.75;3.40;;;;;;;17.75;59.98;101372.09;5026236;28;20430;-73
2022/06/13 05:18:23;;;;;;;9.18;3.10;;;;;;;17.37;59.75;101362.38;5025996;28;20127;-74
2022/06/13 05:21:01;;;;;;;8.93;3.05;;;;;;;17.43;59.69;101377.00;5023135;28;20115;-75
2022/06/13 05:23:49;;;;;;;11.50;3.47;;;;;;;17.63;57.93;101365.88;5025369;28;20045;-75
2022/06/13 05:26:15;;;;;;;8.98;2.95;;;;;;;17.33;58.84;101371.50;5025968;28;20053;-74
2022/06/13 05:28:41;;;;;;;9.07;2.75;;;;;;;17.24;58.30;101363.34;5024751;28;20045;-73
2022/06/13 05:31:10;;;;;;;6.82;2.83;;;;;;;17.57;57.04;101374.28;5026361;28;20090;-76
2022/06/13 05:33:40;;;;;;;10.25;2.55;;;;;;;17.32;58.44;101375.13;5025630;28;20103;-73
2022/06/13 05:36:10;;;;;;;8.07;2.78;;;;;;;16.96;58.62;101381.13;5024660;28;20120;-73
2022/06/13 05:38:42;;;;;;;5.38;2.55;;;;;;;17.40;56.74;101396.66;5025499;28;20552;-74
2022/06/13 05:41:09;;;;;;;8.63;2.53;;;;;;;17.19;58.51;101390.16;5021117;28;20053;-73
2022/06/13 05:43:36;;;;;;;9.90;3.40;;;;;;;17.23;59.06;101394.28;5025374;28;20053;-73
2022/06/13 05:46:03;;;;;;;6.72;2.38;;;;;;;17.00;59.09;101381.75;5024580;28;20045;-74
2022/06/13 05:48:30;;;;;;;15.63;2.83;;;;;;;17.39;58.73;101380.84;5033933;28;20068;-73
2022/06/13 05:50:56;;;;;;;8.63;2.90;;;;;;;17.82;56.50;101381.31;5025952;28;20058;-74
2022/06/13 05:53:25;;;;;;;8.45;2.65;;;;;;;18.24;54.81;101377.38;5045475;28;20576;-74
2022/06/13 05:55:56;;;;;;;8.75;2.75;;;;;;;18.14;57.26;101379.00;5044207;28;20590;-72
2022/06/13 05:58:24;;;;;;;7.00;2.33;;;;;;;18.49;57.83;101371.94;5034854;28;20052;-71
2022/06/13 06:00:53;;;;;;;9.45;2.60;;;;;;;18.83;55.76;101372.94;5028490;28;20464;-71
2022/06/13 06:03:19;;;;;;;8.65;2.42;;;;;;;18.92;54.98;101364.22;5036578;28;20052;-70
2022/06/13 06:05:46;;;;;;;8.02;2.40;;;;;;;19.15;55.49;101363.31;5030215;28;20463;-73
2022/06/13 06:08:20;;;;;;;7.35;2.33;;;;;;;19.85;51.00;101360.44;5027619;28;20179;-73
2022/06/13 06:10:48;;;;;;;11.15;2.38;;;;;;;20.22;49.85;101343.16;5032739;28;20053;-74
2022/06/13 06:13:16;;;;;;;6.13;1.90;;;;;;;20.21;47.81;101325.47;5033455;28;20513;-75
2022/06/13 06:15:44;;;;;;;8.57;1.90;;;;;;;19.99;48.06;101338.03;5044727;28;20485;-74
2022/06/13 06:18:13;;;;;;;6.63;2.17;;;;;;;19.67;47.48;101335.31;5038342;28;20057;-74
2022/06/13 06:20:39;;;;;;;5.60;1.70;;;;;;;19.44;46.86;101345.09;5030194;28;20421;-74
2022/06/13 06:23:06;;;;;;;6.68;1.70;;;;;;;19.51;48.77;101362.28;5034364;28;20537;-74
2022/06/13 06:25:33;;;;;;;8.35;1.83;;;;;;;19.32;48.99;101357.56;5043192;28;20518;-75
2022/06/13 06:28:00;;;;;;;6.65;2.20;;;;;;;19.32;48.69;101348.72;5040558;28;20052;-75
2022/06/13 06:30:28;;;;;;;6.70;2.13;;;;;;;18.96;49.51;101355.06;5031549;28;20475;-75
2022/06/13 06:32:55;;;;;;;8.82;1.90;;;;;;;19.04;49.27;101355.31;5041599;28;20044;-75
2022/06/13 06:35:22;;;;;;;8.77;2.50;;;;;;;19.04;50.20;101355.31;5043311;28;20077;-75
2022/06/13 06:37:51;;;;;;;6.68;1.95;;;;;;;18.74;49.03;101358.53;5030276;28;20050;-75
2022/06/13 06:40:19;;;;;;;9.18;2.10;;;;;;;18.85;49.04;101358.56;5031565;28;20155;-75
2022/06/13 06:42:45;;;;;;;7.05;1.60;;;;;;;19.06;49.04;101361.38;5027108;28;20050;-75
2022/06/13 06:45:12;;;;;;;6.35;2.13;;;;;;;19.14;50.12;101368.78;5028735;28;20359;-75
2022/06/13 06:47:41;;;;;;;8.13;2.13;;;;;;;19.09;49.76;101370.94;5035866;28;20676;-75
2022/06/13 06:50:13;;;;;;;7.65;2.30;;;;;;;19.23;49.47;101368.88;5029982;28;20567;-75
2022/06/13 06:52:40;;;;;;;9.40;1.92;;;;;;;19.11;50.30;101375.16;5042149;28;20048;-75
2022/06/13 07:00:53;;;;;;;12.00;2.20;;;;;;;19.30;50.49;101367.44;4973350;28;20097;-74
2022/06/13 07:03:21;;;;;;;8.90;2.70;;;;;;;19.97;49.87;101379.88;4988221;28;20072;-74
2022/06/13 07:05:47;;;;;;;7.15;2.13;;;;;;;20.40;47.60;101375.44;5024672;28;20049;-74
2022/06/13 07:08:14;;;;;;;7.03;2.10;;;;;;;20.66;46.39;101381.25;5019544;28;20045;-73
2022/06/13 07:10:42;;;;;;;8.50;2.08;;;;;;;20.87;45.63;101379.47;5023362;28;20041;-73
2022/06/13 07:13:09;;;;;;;7.57;2.20;;;;;;;20.95;45.94;101373.50;5032958;28;20053;-73
2022/06/13 07:15:35;;;;;;;6.22;2.10;;;;;;;21.32;46.48;101372.88;5026842;28;20077;-73
2022/06/13 07:18:01;;;;;;;11.55;2.40;;;;;;;21.51;43.91;101376.63;5025881;28;20092;-73
2022/06/13 07:20:29;;;;;;;8.63;2.35;;;;;;;21.05;43.24;101377.91;5030517;28;20076;-73
2022/06/13 07:22:56;;;;;;;14.77;2.80;;;;;;;21.13;45.96;101378.13;5044547;28;20052;-73
2022/06/13 07:25:25;;;;;;;8.43;2.10;;;;;;;21.95;44.41;101381.56;5028238;28;20099;-73
2022/06/13 07:27:51;;;;;;;6.03;2.22;;;;;;;22.38;43.17;101381.25;5025043;28;20143;-74
2022/06/13 07:30:20;;;;;;;11.35;2.40;;;;;;;22.90;42.45;101373.78;5018514;28;20061;-74
2022/06/13 07:32:48;;;;;;;8.52;2.30;;;;;;;23.17;43.60;101373.88;5033603;28;20057;-73
2022/06/13 07:35:17;;;;;;;8.57;2.15;;;;;;;23.58;42.28;101364.59;5043463;28;20049;-73
2022/06/13 07:40:31;;;;;;;7.88;2.00;;;;;;;23.88;37.56;101377.69;5030574;28;20423;-73
2022/06/13 07:43:02;;;;;;;7.57;2.10;;;;;;;23.34;37.91;101365.09;5034127;28;20042;-71
2022/06/13 07:45:34;;;;;;;8.13;2.30;;;;;;;23.27;39.33;101367.50;5043396;28;20056;-72
2022/06/13 07:48:00;;;;;;;10.80;2.40;;;;;;;23.33;37.99;101382.13;5043377;28;20505;-72
2022/06/13 07:50:28;;;;;;;8.02;2.00;;;;;;;23.13;37.67;101386.69;5031632;28;20038;-72
2022/06/13 07:52:57;;;;;;;9.20;1.75;;;;;;;23.16;39.13;101386.41;5010585;28;20045;-73
2022/06/13 07:55:25;;;;;;;9.98;1.98;;;;;;;23.04;39.50;101382.22;5015848;28;20046;-73
2022/06/13 07:57:52;;;;;;;7.78;2.00;;;;;;;23.18;38.86;101381.75;5019885;28;20056;-73
2022/06/13 08:00:22;;;;;;;7.13;2.17;;;;;;;22.86;37.86;101383.94;5037313;28;20076;-73
2022/06/13 08:02:50;;;;;;;9.68;2.13;;;;;;;22.96;38.65;101379.41;5026777;28;20045;-72
2022/06/13 08:05:17;;;;;;;5.78;2.05;;;;;;;23.11;39.20;101387.81;5024916;28;20095;-72
2022/06/13 08:07:43;;;;;;;9.38;2.80;;;;;;;22.64;38.13;101377.03;5027455;28;20041;-72
2022/06/13 08:10:11;;;;;;;4.75;1.73;;;;;;;22.61;40.54;101373.78;5030238;28;20044;-72
2022/06/13 08:12:39;;;;;;;8.30;2.25;;;;;;;22.18;39.45;101384.84;5028694;28;20119;-72
2022/06/13 08:15:06;;;;;;;7.28;2.47;;;;;;;22.55;38.66;101383.19;5046474;28;20041;-72
2022/06/13 08:17:32;;;;;;;5.07;1.73;;;;;;;22.29;38.46;101379.38;5045047;28;20647;-72
2022/06/13 08:19:58;;;;;;;5.90;2.05;;;;;;;22.25;38.22;101389.50;5027896;28;20394;-72
2022/06/13 08:22:25;;;;;;;6.43;1.98;;;;;;;22.14;39.12;101386.13;5026492;28;20075;-72
2022/06/13 08:24:51;;;;;;;8.70;2.60;;;;;;;22.24;38.54;101381.66;5046991;28;20041;-72
2022/06/13 08:27:19;;;;;;;6.65;1.80;;;;;;;22.00;40.87;101383.84;5044228;28;20049;-72
2022/06/13 08:29:45;;;;;;;6.57;2.20;;;;;;;22.01;39.62;101386.38;5040529;28;20049;-72
2022/06/13 08:32:12;;;;;;;9.85;2.40;;;;;;;22.27;39.18;101382.22;5025693;28;20049;-75
2022/06/13 08:34:39;;;;;;;9.65;2.35;;;;;;;22.08;39.14;101387.53;5033611;28;20482;-75
2022/06/13 08:37:06;;;;;;;8.60;2.10;;;;;;;22.45;37.59;101384.19;5032338;28;20053;-75
2022/06/13 08:39:32;;;;;;;7.50;2.65;;;;;;;22.58;38.82;101387.44;5028284;28;20403;-75
2022/06/13 08:42:06;;;;;;;9.13;2.38;;;;;;;22.21;40.93;101393.44;5023972;28;20045;-69
2022/06/13 08:44:47;;;;;;;6.35;2.10;;;;;;;22.20;39.19;101399.78;5026426;28;20071;-70
2022/06/13 08:47:22;;;;;;;9.80;2.75;;;;;;;21.74;40.94;101389.66;5009138;28;20046;-68
2022/06/13 08:49:57;;;;;;;7.85;2.15;;;;;;;21.64;42.19;101382.59;5038035;28;20094;-68
2022/06/13 08:52:28;;;;;;;7.18;2.83;;;;;;;21.28;42.89;101387.50;5046823;28;20464;-68
2022/06/13 08:55:07;;;;;;;9.73;2.30;;;;;;;21.43;42.59;101390.66;5041152;28;20391;-68
2022/06/13 08:57:36;;;;;;;5.18;2.05;;;;;;;21.32;42.80;101398.75;5025150;28;20050;-68
2022/06/13 09:00:08;;;;;;;12.75;2.75;;;;;;;21.41;43.90;101394.41;5025731;28;20454;-68
2022/06/13 09:02:43;;;;;;;11.77;2.90;;;;;;;21.16;43.37;101401.88;5025045;28;20494;-68
2022/06/13 09:05:13;;;;;;;8.93;2.80;;;;;;;20.95;44.45;101405.50;5024792;28;20054;-69
2022/06/13 09:07:45;;;;;;;5.47;2.33;;;;;;;21.44;44.39;101404.81;5025642;28;20091;-69
2022/06/13 09:10:17;;;;;;;10.68;2.58;;;;;;;21.75;42.72;101406.50;5026944;28;20045;-68
2022/06/13 09:12:55;;;;;;;9.48;2.67;;;;;;;22.16;42.31;101403.72;5025462;28;20103;-69
2022/06/13 09:15:28;;;;;;;11.52;2.83;;;;;;;22.79;42.03;101399.72;5026816;28;20041;-69
2022/06/13 09:18:01;;;;;;;7.43;2.42;;;;;;;23.43;39.90;101390.16;5025361;28;20076;-68
2022/06/13 09:20:31;;;;;;;8.15;2.75;;;;;;;24.61;40.48;101378.47;5043207;28;20486;-68
2022/06/13 09:23:04;;;;;;;7.30;2.35;;;;;;;25.34;39.42;101392.44;5044630;28;20041;-68
2022/06/13 09:25:39;;;;;;;6.10;2.92;;;;;;;25.15;36.31;101380.09;5045101;28;20045;-68
2022/06/13 09:28:11;;;;;;;7.97;2.25;;;;;;;24.76;37.34;101381.44;5043522;28;20460;-69
2022/06/13 09:30:45;;;;;;;9.65;2.40;;;;;;;24.41;37.21;101376.94;5043406;28;20412;-68
2022/06/13 09:33:17;;;;;;;12.35;3.45;;;;;;;24.56;36.97;101376.25;5017744;28;20049;-68
2022/06/13 09:35:47;;;;;;;8.15;2.67;;;;;;;24.98;39.13;101384.47;5025307;28;20073;-68
2022/06/13 09:38:21;;;;;;;11.07;2.75;;;;;;;25.38;40.45;101381.25;5033968;28;20044;-68
2022/06/13 09:40:59;;;;;;;7.63;2.70;;;;;;;24.67;37.51;101369.81;5023946;28;20064;-68
2022/06/13 09:43:40;;;;;;;8.32;2.63;;;;;;;25.65;36.42;101375.69;5004931;28;20041;-68
2022/06/13 09:46:15;;;;;;;8.27;2.65;;;;;;;26.03;34.32;101360.03;5008631;28;20123;-68
2022/06/13 09:48:52;;;;;;;9.20;2.75;;;;;;;26.32;37.43;101362.28;5004544;28;20517;-68
2022/06/13 09:51:35;;;;;;;6.13;2.45;;;;;;;26.71;36.79;101355.28;5002865;28;20469;-68
2022/06/13 09:54:09;;;;;;;10.02;2.95;;;;;;;26.90;36.87;101356.81;5018461;28;20048;-68
2022/06/13 09:56:40;;;;;;;10.63;2.65;;;;;;;27.02;35.81;101353.56;5024407;28;20663;-68
2022/06/13 09:59:19;;;;;;;6.60;2.40;;;;;;;25.92;32.17;101350.44;5005195;28;20518;-68
2022/06/13 10:01:51;;;;;;;8.40;2.50;;;;;;;25.29;34.01;101351.81;5014385;28;20053;-68
2022/06/13 10:04:27;;;;;;;6.90;2.70;;;;;;;25.05;33.86;101355.22;5013792;28;20100;-68
2022/06/13 10:06:57;;;;;;;9.35;2.50;;;;;;;24.45;34.97;101348.84;4985585;28;20558;-68
2022/06/13 10:09:36;;;;;;;6.63;2.42;;;;;;;23.85;37.37;101353.88;4990920;28;20119;-68
2022/06/13 10:12:09;;;;;;;10.77;3.20;;;;;;;23.14;37.60;101358.09;5009973;28;20049;-68
2022/06/13 10:15:02;;;;;;;18.13;4.50;;;;;;;23.09;36.34;101347.00;5025900;28;20128;-68
2022/06/13 10:17:49;;;;;;;9.48;2.42;;;;;;;22.56;37.20;101344.81;5023570;28;20104;-68
2022/06/13 10:20:24;;;;;;;7.00;2.10;;;;;;;22.31;37.71;101343.56;5023766;28;20075;-68
2022/06/13 10:22:58;;;;;;;4.93;2.15;;;;;;;22.97;37.86;101346.31;5023699;28;20104;-68
2022/06/13 10:25:39;;;;;;;8.93;2.30;;;;;;;22.96;36.41;101335.75;5042325;28;20076;-68
2022/06/13 10:28:22;;;;;;;7.60;2.15;;;;;;;22.92;36.98;101345.91;5024423;28;20532;-68
2022/06/13 10:30:57;;;;;;;7.35;2.53;;;;;;;23.51;37.40;101347.44;5023687;28;20486;-68
2022/06/13 10:33:42;;;;;;;9.15;2.15;;;;;;;24.13;40.65;101339.47;5024650;28;20042;-68
2022/06/13 10:36:19;;;;;;;6.05;2.17;;;;;;;24.24;34.25;101341.13;5026168;28;20044;-68
2022/06/13 10:38:57;;;;;;;7.72;2.25;;;;;;;24.03;36.97;101349.41;5023346;28;20045;-68
2022/06/13 10:41:25;;;;;;;6.82;2.78;;;;;;;24.63;33.03;101346.97;5023062;28;20056;-68
2022/06/13 10:43:52;;;;;;;7.70;2.10;;;;;;;24.87;34.65;101344.50;5026521;28;20053;-68
2022/06/13 10:46:19;;;;;;;7.03;2.20;;;;;;;24.58;34.82;101338.53;5041862;28;20045;-68
2022/06/13 10:48:50;;;;;;;7.63;1.98;;;;;;;25.46;38.38;101338.28;5032869;28;20120;-68
2022/06/13 10:51:17;;;;;;;5.40;2.10;;;;;;;26.11;34.05;101344.78;5024958;28;20509;-68
2022/06/13 10:53:48;;;;;;;5.30;1.92;;;;;;;25.39;30.38;101339.09;5023890;28;20103;-68
2022/06/13 10:56:19;;;;;;;6.28;1.73;;;;;;;24.81;31.23;101331.69;5038634;28;20045;-69
2022/06/13 10:58:48;;;;;;;6.78;1.80;;;;;;;24.86;31.47;101329.44;5026576;28;20057;-68
2022/06/13 11:01:17;;;;;;;9.98;2.20;;;;;;;24.05;32.08;101335.84;5024414;28;20111;-68
2022/06/13 11:03:58;;;;;;;5.93;2.03;;;;;;;23.40;34.27;101337.72;5023547;28;20103;-68
2022/06/13 11:06:34;;;;;;;10.73;2.53;;;;;;;23.85;33.76;101332.47;5023953;28;20046;-68
2022/06/13 11:09:01;;;;;;;10.07;2.42;;;;;;;24.26;31.89;101330.22;5022373;28;20054;-68
2022/06/13 11:11:35;;;;;;;6.00;2.15;;;;;;;24.56;33.11;101329.81;5023399;28;20497;-68
2022/06/13 11:14:02;;;;;;;9.73;2.35;;;;;;;25.26;32.41;101331.50;5035121;28;20567;-68
2022/06/13 11:25:16;;;;;;;5.75;2.00;;;;;;;26.39;31.54;101328.34;5024130;28;20056;-69
2022/06/13 11:27:45;;;;;;;5.00;2.15;;;;;;;25.78;30.67;101332.25;5026669;28;20464;-68
2022/06/13 11:30:29;;;;;;;5.38;2.10;;;;;;;26.37;33.63;101331.22;5033105;28;20041;-68
2022/06/13 11:32:58;;;;;;;9.75;2.45;;;;;;;26.78;30.23;101339.28;5044110;28;20506;-68
2022/06/13 11:35:36;;;;;;;5.22;1.88;;;;;;;26.40;30.48;101335.41;5037525;28;20049;-68
2022/06/13 11:38:19;;;;;;;6.30;1.98;;;;;;;26.40;29.71;101332.72;5026920;28;20053;-68
2022/06/13 11:40:56;;;;;;;5.28;2.10;;;;;;;25.62;29.92;101341.09;5033636;28;20049;-69
2022/06/13 11:43:31;;;;;;;5.85;1.98;;;;;;;25.47;30.36;101345.38;5028428;28;20046;-68
2022/06/13 11:46:00;;;;;;;7.18;2.20;;;;;;;24.50;32.38;101357.28;5027821;28;20068;-68
2022/06/13 11:48:28;;;;;;;18.98;2.08;;;;;;;23.19;35.35;101398.66;5030688;28;20099;-68
2022/06/13 11:50:55;;;;;;;20.10;2.15;;;;;;;21.82;37.30;101410.31;5027097;28;20394;-68
2022/06/13 11:53:39;;;;;;;8.25;1.90;;;;;;;21.04;39.22;101405.53;5029764;28;20049;-69
2022/06/13 11:56:12;;;;;;;13.63;2.25;;;;;;;20.64;40.59;101413.38;5025630;28;20038;-69
2022/06/13 11:58:42;;;;;;;5.18;1.58;;;;;;;20.70;40.34;101426.19;5025581;28;20502;-69
2022/06/13 12:01:19;;;;;;;6.57;2.05;;;;;;;20.43;42.49;101427.63;5039698;28;20124;-69
2022/06/13 12:03:49;;;;;;;8.20;1.70;;;;;;;20.27;43.46;101436.00;5047850;28;20099;-69
2022/06/13 12:06:18;;;;;;;5.00;1.73;;;;;;;20.05;44.09;101439.53;5036699;28;20045;-69
2022/06/13 12:08:51;;;;;;;6.47;1.90;;;;;;;19.95;47.38;101438.59;5024886;28;20421;-69